createdAt,value
2018-05-16T00:02:12.497Z,9.03
2018-05-16T00:07:15.155Z,9.23
2018-05-16T00:12:17.586Z,10.63
2018-05-16T00:17:20.115Z,9.87
2018-05-16T00:22:22.560Z,11.43
2018-05-16T00:27:25.018Z,11.47
2018-05-16T00:32:27.551Z,10.13
2018-05-16T00:37:32.853Z,11.43
2018-05-16T00:42:35.295Z,12.50
2018-05-16T00:47:37.750Z,11.50
2018-05-16T00:52:40.258Z,11.40
2018-05-16T00:57:42.690Z,11.70
2018-05-16T01:02:45.139Z,11.90
2018-05-16T01:07:48.362Z,11.43
2018-05-16T01:12:51.578Z,12.20
2018-05-16T01:17:54.025Z,11.70
2018-05-16T01:22:56.478Z,11.87
2018-05-16T01:27:59.058Z,11.77
2018-05-16T01:33:03.808Z,12.33
2018-05-16T01:38:06.866Z,11.83
2018-05-16T01:43:09.541Z,13.10
2018-05-16T01:48:11.981Z,11.93
2018-05-16T01:53:15.311Z,12.87
2018-05-16T01:58:18.545Z,12.83
2018-05-16T02:03:21.176Z,12.90
2018-05-16T02:08:23.632Z,12.90
2018-05-16T02:13:26.068Z,13.20
2018-05-16T02:18:28.581Z,12.27
2018-05-16T02:23:32.153Z,10.60
2018-05-16T02:28:34.593Z,12.83
2018-05-16T02:33:53.622Z,14.47
2018-05-16T02:38:56.070Z,12.33
2018-05-16T02:43:59.299Z,13.97
2018-05-16T02:49:03.562Z,15.47
2018-05-16T02:54:06.180Z,15.00
2018-05-16T02:59:08.628Z,14.30
2018-05-16T03:04:11.152Z,13.77
2018-05-16T03:09:13.593Z,13.70
2018-05-16T03:14:16.828Z,14.40
2018-05-16T03:19:19.334Z,13.30
2018-05-16T03:24:21.801Z,13.93
2018-05-16T03:29:24.249Z,12.27
2018-05-16T03:34:28.246Z,11.70
2018-05-16T03:39:30.707Z,12.30
2018-05-16T03:44:34.200Z,13.40
2018-05-16T03:49:36.661Z,13.57
2018-05-16T03:54:39.106Z,12.50
2018-05-16T04:05:17.035Z,12.53
2018-05-16T04:10:19.670Z,13.30
2018-05-16T04:15:23.742Z,13.17
2018-05-16T04:20:27.682Z,12.80
2018-05-16T04:25:30.179Z,14.10
2018-05-16T04:30:32.619Z,13.17
2018-05-16T04:35:35.139Z,13.00
2018-05-16T04:40:37.513Z,11.13
2018-05-16T04:45:39.957Z,13.40
2018-05-16T04:50:42.406Z,15.70
2018-05-16T04:55:44.855Z,15.60
2018-05-16T05:00:48.086Z,15.73
2018-05-16T05:05:50.578Z,16.20
2018-05-16T05:10:53.030Z,16.67
2018-05-16T05:15:55.486Z,18.50
2018-05-16T05:20:57.960Z,18.90
2018-05-16T05:26:00.450Z,19.63
2018-05-16T05:31:02.901Z,21.40
2018-05-16T05:36:05.436Z,24.63
2018-05-16T05:41:07.929Z,27.27
2018-05-16T05:46:10.421Z,24.47
2018-05-16T05:51:12.874Z,20.43
2018-05-16T05:56:15.373Z,22.13
2018-05-16T06:01:18.597Z,19.37
2018-05-16T06:06:21.817Z,20.27
2018-05-16T06:11:24.321Z,17.50
2018-05-16T06:16:26.817Z,17.77
2018-05-16T06:21:29.309Z,17.63
2018-05-16T06:26:31.757Z,14.70
2018-05-16T06:31:34.208Z,16.50
2018-05-16T06:36:36.681Z,14.40
2018-05-16T06:41:39.133Z,14.73
2018-05-16T06:46:41.678Z,15.23
2018-05-16T06:51:44.161Z,16.30
2018-05-16T06:56:46.657Z,15.60
2018-05-16T07:01:49.165Z,16.53
2018-05-16T07:06:51.619Z,15.43
2018-05-16T07:11:54.857Z,18.53
2018-05-16T07:16:57.323Z,15.10
2018-05-16T07:21:59.758Z,18.60
2018-05-16T07:27:02.715Z,13.93
2018-05-16T07:32:05.950Z,14.53
2018-05-16T07:37:08.415Z,15.70
2018-05-16T07:42:10.857Z,15.47
2018-05-16T07:47:13.312Z,15.43
2018-05-16T07:52:16.541Z,17.37
2018-05-16T07:57:19.020Z,18.73
2018-05-16T08:02:22.345Z,16.00
2018-05-16T08:07:24.805Z,15.87
2018-05-16T08:12:28.050Z,17.77
2018-05-16T08:17:30.495Z,16.63
2018-05-16T08:22:33.715Z,17.80
2018-05-16T08:27:36.169Z,19.20
2018-05-16T08:32:38.621Z,19.33
2018-05-16T08:37:41.847Z,18.63
2018-05-16T08:42:44.306Z,19.00
2018-05-16T08:47:46.745Z,20.33
2018-05-16T08:52:49.203Z,19.50
2018-05-16T08:57:52.421Z,19.90
2018-05-16T09:02:55.754Z,17.67
2018-05-16T09:07:58.197Z,16.53
2018-05-16T09:13:00.647Z,20.57
2018-05-16T09:18:03.127Z,15.47
2018-05-16T09:23:05.596Z,16.73
2018-05-16T09:28:08.814Z,18.07
2018-05-16T09:33:12.040Z,16.83
2018-05-16T09:38:14.481Z,16.67
2018-05-16T09:43:17.711Z,15.00
2018-05-16T09:48:20.248Z,15.43
2018-05-16T09:53:22.699Z,16.00
2018-05-16T09:58:25.912Z,15.43
2018-05-16T10:03:29.133Z,15.83
2018-05-16T10:08:31.585Z,15.57
2018-05-16T10:13:34.128Z,16.83
2018-05-16T10:18:36.632Z,17.50
2018-05-16T10:23:39.152Z,16.70
2018-05-16T10:28:41.538Z,18.43
2018-05-16T10:33:43.994Z,18.20
2018-05-16T10:38:46.461Z,16.00
2018-05-16T10:43:49.685Z,17.50
2018-05-16T10:48:52.925Z,18.77
2018-05-16T10:53:55.365Z,15.47
2018-05-16T10:58:57.904Z,15.10
2018-05-16T11:04:00.402Z,15.53
2018-05-16T11:09:02.844Z,17.73
2018-05-16T11:14:05.295Z,16.23
2018-05-16T11:19:07.750Z,16.63
2018-05-16T11:24:10.985Z,16.10
2018-05-16T11:29:13.461Z,15.30
2018-05-16T11:34:16.677Z,17.00
2018-05-16T11:39:19.152Z,17.70
2018-05-16T11:44:22.365Z,15.43
2018-05-16T11:49:26.453Z,19.30
2018-05-16T11:54:28.943Z,17.03
2018-05-16T11:59:31.382Z,19.57
2018-05-16T12:04:34.610Z,19.07
2018-05-16T12:09:37.102Z,20.60
2018-05-16T12:14:39.618Z,20.90
2018-05-16T12:19:42.066Z,22.40
2018-05-16T12:24:45.400Z,22.60
2018-05-16T12:29:48.650Z,23.20
2018-05-16T12:34:51.113Z,24.37
2018-05-16T12:39:53.567Z,25.03
2018-05-16T12:44:56.099Z,25.60
2018-05-16T12:49:58.567Z,24.83
2018-05-16T12:55:01.789Z,24.20
2018-05-16T13:00:04.413Z,24.10
2018-05-16T13:05:06.886Z,24.17
2018-05-16T13:10:09.360Z,23.20
2018-05-16T13:15:12.578Z,27.63
2018-05-16T13:20:15.798Z,21.70
2018-05-16T13:25:18.257Z,27.73
2018-05-16T13:30:20.702Z,25.17
2018-05-16T13:35:23.157Z,24.93
2018-05-16T13:40:26.390Z,21.47
2018-05-16T13:45:28.846Z,22.57
2018-05-16T13:50:31.305Z,23.10
2018-05-16T13:55:33.759Z,25.93
2018-05-16T14:00:36.208Z,24.93
2018-05-16T14:05:40.176Z,22.27
2018-05-16T14:10:42.626Z,25.50
2018-05-16T14:15:45.069Z,25.27
2018-05-16T14:20:47.521Z,28.20
2018-05-16T14:25:50.054Z,26.93
2018-05-16T14:30:52.505Z,24.93
2018-05-16T14:35:56.145Z,27.93
2018-05-16T14:40:58.573Z,27.73
2018-05-16T14:46:01.026Z,28.40
2018-05-16T14:51:04.265Z,28.77
2018-05-16T14:56:07.637Z,24.07
2018-05-16T15:01:10.222Z,23.27
2018-05-16T15:06:13.441Z,23.60
2018-05-16T15:11:15.903Z,23.30
2018-05-16T15:16:18.354Z,23.60
2018-05-16T15:21:21.617Z,26.93
2018-05-16T15:26:24.039Z,27.40
2018-05-16T15:31:26.486Z,28.53
2018-05-16T15:36:28.990Z,26.30
2018-05-16T15:41:31.442Z,29.83
2018-05-16T15:46:33.901Z,26.77
2018-05-16T15:51:36.459Z,27.20
2018-05-16T15:56:38.911Z,25.77
2018-05-16T16:01:42.130Z,27.50
2018-05-16T16:06:44.640Z,26.53
2018-05-16T16:11:47.146Z,28.27
2018-05-16T16:16:49.627Z,33.47
2018-05-16T16:21:52.503Z,29.80
2018-05-16T16:26:55.729Z,30.30
2018-05-16T16:31:58.186Z,35.67
2018-05-16T16:37:01.401Z,31.30
2018-05-16T16:42:04.615Z,36.53
2018-05-16T16:47:07.853Z,37.83
2018-05-16T16:52:10.302Z,36.30
2018-05-16T16:57:12.754Z,34.00
2018-05-16T17:02:15.218Z,32.20
2018-05-16T17:07:18.433Z,33.10
2018-05-16T17:12:20.880Z,31.87
2018-05-16T17:17:23.336Z,40.07
2018-05-16T17:22:25.833Z,39.77
2018-05-16T17:27:28.317Z,36.37
2018-05-16T17:32:30.778Z,41.10
2018-05-16T17:37:33.985Z,37.53
2018-05-16T17:42:37.220Z,39.13
2018-05-16T17:47:39.717Z,39.77
2018-05-16T17:52:42.160Z,37.03
2018-05-16T17:57:45.377Z,40.87
2018-05-16T18:02:48.602Z,39.77
2018-05-16T18:07:52.024Z,35.67
2018-05-16T18:18:32.046Z,35.13
2018-05-16T18:23:34.488Z,32.83
2018-05-16T18:28:36.989Z,20.30
2018-05-16T18:33:39.434Z,22.40
2018-05-16T18:38:41.881Z,16.97
2018-05-16T18:43:44.341Z,16.47
2018-05-16T18:48:46.829Z,15.97
2018-05-16T18:53:49.276Z,16.63
2018-05-16T18:58:52.505Z,13.10
2018-05-16T19:03:55.033Z,13.90
2018-05-16T19:08:57.473Z,17.70
2018-05-16T19:14:00.706Z,16.13
2018-05-16T19:19:03.176Z,21.30
2018-05-16T19:24:06.380Z,16.00
2018-05-16T19:29:09.590Z,14.40
2018-05-16T19:34:12.797Z,13.60
2018-05-16T19:39:16.012Z,16.07
2018-05-16T19:44:19.228Z,16.07
2018-05-16T19:49:22.440Z,16.80
2018-05-16T19:54:25.653Z,13.87
2018-05-16T19:59:28.878Z,16.97
2018-05-16T20:04:31.349Z,19.67
2018-05-16T20:09:35.405Z,19.83
2018-05-16T20:14:37.877Z,17.63
2018-05-16T20:19:41.109Z,24.57
2018-05-16T20:24:43.556Z,25.33
2018-05-16T20:29:46.006Z,22.90
2018-05-16T20:34:48.454Z,20.13
2018-05-16T20:39:51.705Z,21.83
2018-05-16T20:44:54.910Z,20.90
2018-05-16T20:49:57.345Z,19.27
2018-05-16T20:54:59.890Z,17.80
2018-05-16T21:00:02.389Z,19.50
2018-05-16T21:05:04.842Z,26.07
2018-05-16T21:10:08.053Z,20.13
2018-05-16T21:15:11.288Z,17.13
2018-05-16T21:20:13.787Z,21.63
2018-05-16T21:25:16.229Z,21.53
2018-05-16T21:30:18.681Z,18.67
2018-05-16T21:35:21.165Z,26.50
2018-05-16T21:40:23.617Z,18.63
2018-05-16T21:45:26.865Z,22.23
2018-05-16T21:50:29.305Z,25.60
2018-05-16T21:55:32.578Z,28.23
2018-05-16T22:00:35.069Z,23.13
2018-05-16T22:05:37.512Z,25.20
2018-05-16T22:10:40.013Z,27.50
2018-05-16T22:15:42.409Z,18.87
2018-05-16T22:20:45.634Z,19.33
2018-05-16T22:25:48.837Z,22.70
2018-05-16T22:30:57.789Z,23.30
2018-05-16T22:36:06.833Z,22.97
2018-05-16T22:41:15.665Z,23.70
2018-05-16T22:46:18.901Z,27.83
2018-05-16T22:51:22.117Z,29.37
2018-05-16T22:56:24.609Z,25.57
2018-05-16T23:01:27.057Z,27.63
2018-05-16T23:06:29.845Z,25.87
2018-05-16T23:11:32.297Z,21.33
2018-05-16T23:16:34.746Z,25.37
2018-05-16T23:21:37.278Z,18.87
2018-05-16T23:26:39.726Z,25.00
2018-05-16T23:31:42.174Z,23.90
2018-05-16T23:36:44.620Z,29.37
2018-05-16T23:41:47.067Z,32.87
2018-05-16T23:46:49.509Z,20.97
2018-05-16T23:51:52.750Z,20.23
2018-05-16T23:56:55.192Z,22.47
